createdAt,value
2018-07-25T00:02:22.777Z,66.90
2018-07-25T00:04:55.277Z,66.60
2018-07-25T00:07:29.490Z,66.40
2018-07-25T00:10:02.847Z,66.00
2018-07-25T00:12:35.356Z,66.70
2018-07-25T00:15:08.027Z,66.20
2018-07-25T00:17:40.657Z,66.70
2018-07-25T00:20:14.459Z,67.20
2018-07-25T00:22:48.183Z,67.00
2018-07-25T00:25:20.871Z,66.70
2018-07-25T00:27:54.264Z,65.60
2018-07-25T00:30:29.038Z,64.50
2018-07-25T00:36:10.706Z,63.30
2018-07-25T00:38:40.735Z,63.40
2018-07-25T00:43:46.181Z,64.70
2018-07-25T00:49:13.576Z,65.90
2018-07-25T00:51:44.818Z,65.10
2018-07-25T00:54:14.776Z,66.00
2018-07-25T00:56:46.152Z,65.60
2018-07-25T00:59:17.397Z,65.30
2018-07-25T01:01:49.233Z,65.80
2018-07-25T01:04:20.900Z,65.30
2018-07-25T01:06:52.351Z,65.20
2018-07-25T01:09:23.544Z,65.40
2018-07-25T01:11:55.093Z,65.00
2018-07-25T01:14:26.023Z,67.90
2018-07-25T01:16:57.058Z,68.30
2018-07-25T01:19:27.867Z,69.30
2018-07-25T01:21:58.359Z,70.20
2018-07-25T01:24:29.444Z,69.40
2018-07-25T01:27:00.124Z,69.30
2018-07-25T01:29:31.558Z,70.20
2018-07-25T01:32:14.667Z,71.30
2018-07-25T01:37:36.703Z,70.00
2018-07-25T01:40:21.393Z,69.90
2018-07-25T01:43:03.479Z,69.80
2018-07-25T01:45:40.699Z,69.20
2018-07-25T01:48:51.691Z,69.50
2018-07-25T01:51:36.554Z,70.70
2018-07-25T01:54:12.645Z,72.10
2018-07-25T01:56:50.991Z,72.10
2018-07-25T01:59:32.696Z,72.30
2018-07-25T02:05:02.075Z,69.30
2018-07-25T02:07:46.171Z,70.00
2018-07-25T02:10:24.179Z,70.00
2018-07-25T02:13:06.696Z,69.60
2018-07-25T02:15:46.447Z,69.10
2018-07-25T02:18:29.649Z,68.90
2018-07-25T02:21:15.664Z,68.60
2018-07-25T02:23:57.633Z,69.80
2018-07-25T02:26:35.492Z,69.70
2018-07-25T02:29:12.192Z,68.80
2018-07-25T02:31:50.305Z,68.90
2018-07-25T02:34:30.010Z,70.50
2018-07-25T02:37:13.977Z,70.10
2018-07-25T02:42:32.107Z,71.20
2018-07-25T02:45:09.958Z,71.00
2018-07-25T02:47:48.509Z,71.30
2018-07-25T02:50:30.113Z,70.90
2018-07-25T02:53:12.322Z,70.60
2018-07-25T02:55:47.040Z,71.50
2018-07-25T03:01:15.011Z,71.30
2018-07-25T03:03:57.612Z,71.80
2018-07-25T03:06:35.129Z,70.50
2018-07-25T03:09:18.529Z,72.40
2018-07-25T03:11:57.349Z,71.50
2018-07-25T03:14:37.913Z,67.90
2018-07-25T03:17:19.027Z,69.50
2018-07-25T03:22:29.808Z,70.00
2018-07-25T03:25:16.431Z,70.10
2018-07-25T03:33:22.715Z,68.90
2018-07-25T03:36:06.369Z,66.80
2018-07-25T03:41:29.465Z,66.90
2018-07-25T03:44:12.812Z,66.30
2018-07-25T03:46:52.993Z,66.10
2018-07-25T03:49:39.739Z,67.10
2018-07-25T03:52:18.630Z,68.10
2018-07-25T03:54:53.920Z,68.90
2018-07-25T03:57:28.128Z,68.20
2018-07-25T04:00:07.919Z,68.30
2018-07-25T04:02:50.665Z,67.40
2018-07-25T04:05:30.254Z,67.50
2018-07-25T04:08:17.031Z,68.50
2018-07-25T04:11:04.781Z,66.80
2018-07-25T04:13:52.998Z,66.10
2018-07-25T04:19:41.778Z,65.30
2018-07-25T04:22:41.874Z,64.80
2018-07-25T04:25:33.889Z,65.20
2018-07-25T04:28:24.047Z,65.60
2018-07-25T04:31:22.836Z,67.00
2018-07-25T04:34:15.834Z,66.60
2018-07-25T04:40:15.604Z,67.30
2018-07-25T04:46:08.038Z,64.60
2018-07-25T04:49:11.593Z,65.80
2018-07-25T04:52:16.168Z,65.80
2018-07-25T04:55:02.796Z,66.30
2018-07-25T05:00:54.937Z,66.60
2018-07-25T05:06:40.852Z,64.60
2018-07-25T05:09:32.810Z,64.60
2018-07-25T05:12:26.700Z,64.50
2018-07-25T05:15:18.506Z,64.10
2018-07-25T05:18:11.072Z,66.30
2018-07-25T05:23:59.847Z,61.50
2018-07-25T05:33:00.296Z,60.00
2018-07-25T05:35:51.966Z,59.30
2018-07-25T05:41:34.983Z,59.40
2018-07-25T05:44:25.180Z,61.50
2018-07-25T05:47:24.885Z,60.50
2018-07-25T05:56:08.421Z,59.50
2018-07-25T06:02:02.381Z,59.00
2018-07-25T06:07:59.133Z,57.20
2018-07-25T06:16:41.288Z,57.50
2018-07-25T06:19:35.994Z,56.50
2018-07-25T06:39:54.534Z,56.40
2018-07-25T06:48:42.017Z,55.20
2018-07-25T06:57:25.288Z,55.30
2018-07-25T07:00:23.829Z,54.30
2018-07-25T07:03:14.392Z,54.90
2018-07-25T07:26:41.470Z,53.80
2018-07-25T07:29:32.804Z,51.80
2018-07-25T07:32:24.015Z,51.50
2018-07-25T07:35:18.583Z,51.20
2018-07-25T07:38:09.743Z,50.10
2018-07-25T07:49:57.025Z,49.90
2018-07-25T07:52:50.102Z,50.50
2018-07-25T07:58:47.132Z,48.90
2018-07-25T08:07:40.849Z,48.50
2018-07-25T08:16:33.792Z,47.30
2018-07-25T08:22:23.157Z,46.10
2018-07-25T08:25:14.544Z,45.20
2018-07-25T08:36:54.966Z,43.00
2018-07-25T08:39:53.509Z,44.30
2018-07-25T08:48:47.026Z,43.70
2018-07-25T08:54:35.469Z,46.60
2018-07-25T09:03:17.826Z,43.00
2018-07-25T09:12:07.416Z,44.10
2018-07-25T09:20:55.833Z,42.40
2018-07-25T09:23:50.222Z,43.70
2018-07-25T09:35:42.048Z,42.20
2018-07-25T09:38:42.529Z,42.90
2018-07-25T09:41:39.994Z,40.00
2018-07-25T09:50:25.854Z,42.10
2018-07-25T09:59:17.852Z,40.90
2018-07-25T10:05:18.562Z,43.30
2018-07-25T10:08:15.884Z,41.70
2018-07-25T10:17:10.726Z,44.30
2018-07-25T10:28:49.917Z,42.50
2018-07-25T10:37:35.609Z,40.60
2018-07-25T10:40:28.125Z,39.60
2018-07-25T10:46:19.408Z,40.20
2018-07-25T10:49:13.980Z,41.10
2018-07-25T10:54:58.345Z,39.60
2018-07-25T10:57:46.396Z,39.60
2018-07-25T11:06:24.330Z,41.30
2018-07-25T11:09:19.070Z,39.90
2018-07-25T11:12:09.000Z,41.20
2018-07-25T11:23:51.275Z,37.80
2018-07-25T11:26:44.303Z,39.70
2018-07-25T11:32:36.233Z,40.80
2018-07-25T11:35:33.834Z,39.10
2018-07-25T11:38:17.905Z,40.40
2018-07-25T11:41:16.606Z,38.00
2018-07-25T11:43:57.757Z,40.00
2018-07-25T11:46:43.781Z,35.90
2018-07-25T11:51:53.517Z,36.00
2018-07-25T11:54:30.077Z,37.20
2018-07-25T11:59:51.930Z,37.70
2018-07-25T12:05:11.802Z,38.00
2018-07-25T12:07:44.694Z,38.40
2018-07-25T12:10:24.814Z,39.30
2018-07-25T12:12:58.174Z,38.40
2018-07-25T12:18:18.031Z,37.70
2018-07-25T12:20:55.376Z,36.60
2018-07-25T12:23:36.701Z,37.00
2018-07-25T12:28:51.801Z,37.00
2018-07-25T12:31:31.799Z,39.60
2018-07-25T12:34:16.042Z,40.30
2018-07-25T12:36:59.358Z,38.90
2018-07-25T12:39:35.342Z,40.40
2018-07-25T12:42:12.633Z,40.30
2018-07-25T12:44:51.039Z,40.40
2018-07-25T12:50:18.477Z,42.20
2018-07-25T12:52:58.409Z,38.90
2018-07-25T12:55:43.089Z,38.00
2018-07-25T12:58:26.944Z,39.20
2018-07-25T13:01:04.340Z,40.20
2018-07-25T13:03:50.925Z,38.90
2018-07-25T13:06:29.672Z,40.40
2018-07-25T13:09:07.974Z,39.20
2018-07-25T13:11:44.863Z,38.80
2018-07-25T13:14:33.306Z,37.80
2018-07-25T13:17:14.429Z,37.60
2018-07-25T13:22:36.902Z,39.50
2018-07-25T13:25:29.256Z,42.40
2018-07-25T13:30:50.299Z,42.80
2018-07-25T13:36:11.613Z,44.80
2018-07-25T13:38:52.423Z,43.40
2018-07-25T13:41:39.404Z,44.00
2018-07-25T13:44:22.747Z,42.90
2018-07-25T13:47:10.527Z,43.90
2018-07-25T13:49:47.922Z,43.60
2018-07-25T13:52:31.844Z,42.20
2018-07-25T13:55:08.234Z,42.50
2018-07-25T14:00:35.631Z,43.30
2018-07-25T14:03:23.830Z,44.40
2018-07-25T14:06:09.902Z,44.30
2018-07-25T14:08:53.319Z,45.10
2018-07-25T14:11:33.632Z,43.90
2018-07-25T14:14:29.061Z,45.00
2018-07-25T14:17:10.619Z,47.20
2018-07-25T14:19:48.858Z,47.30
2018-07-25T14:22:38.523Z,47.30
2018-07-25T14:25:19.123Z,46.70
2018-07-25T14:27:58.151Z,46.90
2018-07-25T14:30:37.219Z,47.80
2018-07-25T14:36:00.257Z,47.20
2018-07-25T14:38:38.432Z,46.60
2018-07-25T14:41:20.246Z,48.50
2018-07-25T14:43:58.809Z,48.10
2018-07-25T14:46:40.878Z,49.00
2018-07-25T14:49:19.182Z,49.40
2018-07-25T14:54:38.708Z,48.90
2018-07-25T14:57:14.106Z,48.60
2018-07-25T14:59:53.998Z,48.40
2018-07-25T15:02:33.487Z,47.30
2018-07-25T15:07:54.861Z,49.70
2018-07-25T15:10:41.112Z,49.40
2018-07-25T15:13:14.694Z,47.90
2018-07-25T15:15:49.850Z,47.70
2018-07-25T15:18:25.356Z,47.60
2018-07-25T15:21:04.372Z,46.70
2018-07-25T15:23:57.628Z,46.20
2018-07-25T15:29:30.842Z,46.30
2018-07-25T15:32:14.637Z,47.00
2018-07-25T15:34:55.102Z,45.30
2018-07-25T15:37:29.868Z,46.40
2018-07-25T15:42:53.037Z,45.70
2018-07-25T15:51:17.090Z,46.00
2018-07-25T15:53:59.380Z,46.30
2018-07-25T15:56:37.000Z,48.00
2018-07-25T15:59:23.276Z,46.50
2018-07-25T16:02:03.361Z,46.70
2018-07-25T16:04:38.845Z,47.00
2018-07-25T16:07:23.055Z,48.00
2018-07-25T16:10:12.339Z,47.30
2018-07-25T16:12:51.623Z,48.00
2018-07-25T16:15:41.700Z,48.00
2018-07-25T16:18:16.393Z,46.60
2018-07-25T16:20:58.318Z,46.50
2018-07-25T16:23:32.923Z,47.70
2018-07-25T16:26:11.757Z,46.90
2018-07-25T16:28:50.065Z,47.00
2018-07-25T16:31:28.361Z,47.20
2018-07-25T16:34:03.638Z,46.60
2018-07-25T16:36:41.165Z,46.70
2018-07-25T16:39:18.173Z,45.20
2018-07-25T16:41:51.473Z,45.90
2018-07-25T16:44:27.733Z,45.00
2018-07-25T16:49:59.473Z,45.70
2018-07-25T16:52:36.517Z,46.20
2018-07-25T16:55:15.581Z,45.90
2018-07-25T16:58:08.403Z,46.30
2018-07-25T17:00:48.278Z,46.90
2018-07-25T17:03:37.275Z,46.90
2018-07-25T17:09:09.722Z,48.30
2018-07-25T17:12:04.075Z,47.50
2018-07-25T17:14:46.113Z,48.50
2018-07-25T17:17:30.574Z,48.90
2018-07-25T17:20:16.608Z,50.20
2018-07-25T17:22:54.948Z,48.60
2018-07-25T17:34:17.309Z,48.80
2018-07-25T17:37:01.507Z,48.90
2018-07-25T17:39:47.845Z,50.40
2018-07-25T17:42:28.076Z,50.40
2018-07-25T17:45:13.910Z,51.40
2018-07-25T17:47:55.539Z,51.60
2018-07-25T17:58:47.989Z,52.00
2018-07-25T18:04:13.708Z,52.60
2018-07-25T18:06:57.535Z,53.60
2018-07-25T18:09:33.045Z,53.70
2018-07-25T18:12:06.870Z,54.10
2018-07-25T18:14:40.230Z,54.60
2018-07-25T18:17:16.565Z,55.20
2018-07-25T18:19:51.787Z,55.00
2018-07-25T18:22:24.457Z,55.30
2018-07-25T18:25:01.025Z,55.90
2018-07-25T18:27:34.586Z,56.50
2018-07-25T18:30:08.059Z,56.40
2018-07-25T18:32:40.583Z,56.90
2018-07-25T18:35:12.887Z,57.00
2018-07-25T18:37:46.122Z,56.70
2018-07-25T18:40:19.815Z,57.20
2018-07-25T18:42:52.880Z,58.00
2018-07-25T18:45:27.089Z,58.50
2018-07-25T18:48:00.061Z,58.40
2018-07-25T18:50:33.736Z,58.50
2018-07-25T18:53:10.690Z,59.50
2018-07-25T18:55:45.314Z,62.10
2018-07-25T18:58:18.319Z,62.20
2018-07-25T19:00:52.814Z,61.30
2018-07-25T19:03:30.904Z,61.30
2018-07-25T19:06:05.664Z,62.00
2018-07-25T19:08:38.698Z,64.10
2018-07-25T19:11:11.497Z,64.70
2018-07-25T19:14:47.818Z,67.10
2018-07-25T19:17:21.870Z,68.10
2018-07-25T19:19:56.858Z,69.40
2018-07-25T19:22:30.602Z,71.10
2018-07-25T19:25:03.110Z,71.30
2018-07-25T19:27:35.553Z,76.40
2018-07-25T19:30:08.451Z,75.60
2018-07-25T19:32:40.600Z,71.80
2018-07-25T19:35:12.942Z,72.60
2018-07-25T19:37:46.929Z,72.50
2018-07-25T19:40:19.276Z,73.10
2018-07-25T19:42:53.650Z,72.20
2018-07-25T19:45:26.469Z,71.00
2018-07-25T19:47:59.660Z,72.40
2018-07-25T19:50:32.740Z,71.50
2018-07-25T19:53:06.576Z,73.40
2018-07-25T19:55:39.310Z,71.60
2018-07-25T19:58:11.979Z,71.30
2018-07-25T20:00:46.802Z,69.40
2018-07-25T20:03:20.517Z,66.70
2018-07-25T20:05:53.192Z,67.00
2018-07-25T20:08:26.410Z,66.20
2018-07-25T20:11:00.761Z,66.70
2018-07-25T20:13:33.604Z,66.80
2018-07-25T20:16:06.752Z,65.20
2018-07-25T20:18:42.593Z,66.70
2018-07-25T20:21:15.052Z,66.90
2018-07-25T20:23:48.594Z,66.50
2018-07-25T20:29:09.450Z,60.20
2018-07-25T20:34:33.477Z,58.90
2018-07-25T20:37:22.729Z,60.60
2018-07-25T20:42:56.625Z,62.10
2018-07-25T20:45:36.609Z,60.60
2018-07-25T20:48:15.068Z,58.90
2018-07-25T20:50:51.012Z,59.10
2018-07-25T20:53:31.950Z,58.50
2018-07-25T20:56:07.129Z,58.50
2018-07-25T20:58:48.524Z,58.60
2018-07-25T21:01:27.725Z,58.00
2018-07-25T21:04:11.333Z,59.10
2018-07-25T21:09:51.644Z,62.80
2018-07-25T21:12:47.854Z,63.50
2018-07-25T21:15:34.885Z,66.40
2018-07-25T21:18:14.014Z,69.80
2018-07-25T21:20:52.149Z,70.10
2018-07-25T21:23:31.722Z,71.90
2018-07-25T21:26:15.406Z,72.00
2018-07-25T21:29:04.301Z,72.80
2018-07-25T21:34:30.575Z,71.60
2018-07-25T21:37:12.259Z,71.40
2018-07-25T21:39:47.622Z,69.40
2018-07-25T21:42:29.696Z,70.20
2018-07-25T21:50:45.413Z,68.70
2018-07-25T21:53:37.086Z,69.70
2018-07-25T21:56:19.962Z,71.90
2018-07-25T21:59:04.223Z,70.60
2018-07-25T22:04:33.124Z,71.50
2018-07-25T22:07:22.226Z,70.90
2018-07-25T22:13:04.392Z,73.40
2018-07-25T22:15:43.970Z,73.40
2018-07-25T22:18:29.216Z,72.60
2018-07-25T22:21:09.092Z,70.40
2018-07-25T22:26:26.744Z,69.90
2018-07-25T22:29:12.242Z,71.70
2018-07-25T22:43:52.752Z,73.20
2018-07-25T22:46:27.910Z,71.90
2018-07-25T22:49:09.087Z,71.40
2018-07-25T22:51:44.652Z,72.20
2018-07-25T22:54:18.912Z,71.90
2018-07-25T22:57:04.252Z,74.10
2018-07-25T23:02:24.243Z,76.90
2018-07-25T23:05:00.803Z,78.10
2018-07-25T23:07:43.719Z,77.90
2018-07-25T23:10:26.222Z,77.50
2018-07-25T23:15:55.928Z,77.90
2018-07-25T23:18:32.292Z,77.20
2018-07-25T23:21:19.344Z,76.50
2018-07-25T23:23:55.802Z,75.70
2018-07-25T23:26:42.305Z,75.70
2018-07-25T23:29:21.903Z,74.50
2018-07-25T23:31:59.729Z,74.40
2018-07-25T23:34:46.553Z,73.50
2018-07-25T23:49:10.520Z,72.90
2018-07-25T23:51:50.992Z,73.20
2018-07-25T23:54:26.128Z,72.20
2018-07-25T23:57:01.281Z,71.40
2018-07-25T23:59:40.062Z,71.20
